This is the latest recevied weather packets stored in our database for station/object HB9ZRH-10. If no packets are shown the sender has not sent any weather packets the latest 10 day(s).
| Time | Temp. | Humidity | Pressure | Rain* | Wind** | Luminosity | Snow |
|---|---|---|---|---|---|---|---|
| 1778120248 | 20° C | 44% | 1011.6 hPa | - | - | - | - |
| 1778119948 | 20° C | 44% | 1011.6 hPa | - | - | - | - |
| 1778119648 | 21.11° C | 43% | 1011.6 hPa | - | - | - | - |
| 1778119348 | 20.56° C | 44% | 1011.5 hPa | - | - | - | - |
| 1778119048 | 20.56° C | 44% | 1011.6 hPa | - | - | - | - |
| 1778118748 | 21.67° C | 43% | 1011.5 hPa | - | - | - | - |
| 1778118448 | 21.67° C | 44% | 1011.4 hPa | - | - | - | - |
| 1778118148 | 21.67° C | 44% | 1011.3 hPa | - | - | - | - |
| 1778117848 | 21.11° C | 45% | 1011.3 hPa | - | - | - | - |
| 1778117548 | 20° C | 45% | 1011.2 hPa | - | - | - | - |
| 1778117248 | 18.89° C | 47% | 1011.2 hPa | - | - | - | - |
| 1778116948 | 18.89° C | 46% | 1011.2 hPa | - | - | - | - |
| 1778116648 | 19.44° C | 47% | 1011.1 hPa | - | - | - | - |
| 1778116348 | 19.44° C | 46% | 1011.1 hPa | - | - | - | - |
| 1778116048 | 18.33° C | 48% | 1011.2 hPa | - | - | - | - |
| 1778115748 | 15° C | 51% | 1011.2 hPa | - | - | - | - |
| 1778115448 | 13.89° C | 51% | 1011.2 hPa | - | - | - | - |
| 1778115148 | 12.78° C | 51% | 1011.2 hPa | - | - | - | - |
| 1778114848 | 15° C | 49% | 1011.1 hPa | - | - | - | - |
| 1778114548 | 14.44° C | 50% | 1011.1 hPa | - | - | - | - |
| 1778114248 | 15° C | 49% | 1011.2 hPa | - | - | - | - |
| 1778113948 | 16.67° C | 47% | 1011.1 hPa | - | - | - | - |
| 1778113648 | 17.22° C | 48% | 1011 hPa | - | - | - | - |
| 1778113348 | 14.44° C | 50% | 1011.1 hPa | - | - | - | - |
| 1778113048 | 16.67° C | 48% | 1011 hPa | - | - | - | - |
* Rain since midnight (hover to see other rain measurements)
** Current wind speed in m/s (hover to see current wind gust speed)